Time;durP1;ratioP1;P1;durP2;ratioP2;P2;SDS_P1;SDS_P2;PMS_P1;PMS_P2;Temp;Humidity;BMP_temperature;BMP_pressure;BME280_temperature;BME280_humidity;BME280_pressure;Samples;Min_cycle;Max_cycle;Signal;HPM_P1;HPM_P2
2022/03/03 00:00:43;;;;;;;24.27;18.67;;;;;;;;;;5064799;28;24470;-51
2022/03/03 00:03:08;;;;;;;24.80;18.57;;;;;;;;;;5065278;28;24419;-51
2022/03/03 00:05:33;;;;;;;20.97;17.93;;;;;;;;;;5060871;28;24654;-52
2022/03/03 00:07:59;;;;;;;21.75;18.17;;;;;;;;;;5065643;28;24407;-51
2022/03/03 00:10:24;;;;;;;20.80;18.17;;;;;;;;;;5065972;28;24417;-51
2022/03/03 00:12:49;;;;;;;20.85;17.60;;;;;;;;;;5063594;28;24514;-51
2022/03/03 00:15:14;;;;;;;20.30;18.10;;;;;;;;;;5063928;28;24418;-51
2022/03/03 00:17:39;;;;;;;20.10;17.50;;;;;;;;;;5065855;28;24902;-51
2022/03/03 00:20:05;;;;;;;21.33;17.70;;;;;;;;;;5057319;28;24838;-51
2022/03/03 00:22:30;;;;;;;22.03;18.07;;;;;;;;;;5065597;28;24438;-52
2022/03/03 00:24:55;;;;;;;22.73;18.10;;;;;;;;;;5063986;28;24523;-52
2022/03/03 00:27:21;;;;;;;22.20;17.90;;;;;;;;;;5061309;28;24411;-51
2022/03/03 00:29:46;;;;;;;20.90;18.63;;;;;;;;;;5064969;28;24480;-50
2022/03/03 00:32:11;;;;;;;20.48;17.80;;;;;;;;;;5065130;28;24430;-51
2022/03/03 00:34:36;;;;;;;22.15;18.27;;;;;;;;;;5063650;28;24434;-51
2022/03/03 00:37:01;;;;;;;21.45;17.88;;;;;;;;;;5063514;28;24526;-51
2022/03/03 00:39:27;;;;;;;19.93;17.70;;;;;;;;;;5064604;28;24430;-51
2022/03/03 00:41:52;;;;;;;20.92;18.08;;;;;;;;;;5064544;28;24435;-51
2022/03/03 00:44:17;;;;;;;21.63;17.88;;;;;;;;;;5065188;28;24406;-51
2022/03/03 00:46:42;;;;;;;22.10;18.45;;;;;;;;;;5062273;28;24484;-51
2022/03/03 00:49:07;;;;;;;20.50;18.30;;;;;;;;;;5062314;28;24766;-51
2022/03/03 00:51:34;;;;;;;20.37;17.20;;;;;;;;;;5064580;28;24496;-51
2022/03/03 00:53:59;;;;;;;21.83;17.48;;;;;;;;;;5063427;28;24442;-52
2022/03/03 00:56:24;;;;;;;20.95;17.30;;;;;;;;;;5064728;28;24410;-52
2022/03/03 00:58:50;;;;;;;21.23;17.80;;;;;;;;;;5063418;28;24840;-52
2022/03/03 01:01:15;;;;;;;20.80;18.00;;;;;;;;;;5064662;28;24434;-52
2022/03/03 01:03:41;;;;;;;21.17;18.20;;;;;;;;;;5063578;28;24702;-51
2022/03/03 01:06:06;;;;;;;20.27;17.47;;;;;;;;;;5064746;28;24411;-52
2022/03/03 01:08:31;;;;;;;21.17;17.50;;;;;;;;;;5061964;28;24422;-52
2022/03/03 01:10:57;;;;;;;20.00;16.97;;;;;;;;;;5062486;28;24411;-51
2022/03/03 01:13:22;;;;;;;19.67;16.17;;;;;;;;;;5067149;28;25032;-52
2022/03/03 01:15:48;;;;;;;20.73;16.90;;;;;;;;;;5068197;28;25279;-52
2022/03/03 01:18:13;;;;;;;19.90;16.60;;;;;;;;;;5068815;28;24487;-52
2022/03/03 01:20:38;;;;;;;21.43;16.87;;;;;;;;;;5066799;28;24438;-51
2022/03/03 01:23:04;;;;;;;19.83;16.63;;;;;;;;;;5065062;28;24502;-51
2022/03/03 01:25:29;;;;;;;19.17;16.90;;;;;;;;;;5068728;28;24975;-52
2022/03/03 01:27:54;;;;;;;20.23;15.90;;;;;;;;;;5068163;28;24445;-51
2022/03/03 01:30:19;;;;;;;19.25;16.58;;;;;;;;;;5068654;28;24509;-52
2022/03/03 01:32:44;;;;;;;18.20;16.20;;;;;;;;;;5068260;28;24883;-51
2022/03/03 01:35:09;;;;;;;19.92;16.60;;;;;;;;;;5068488;28;25049;-52
2022/03/03 01:37:34;;;;;;;20.70;17.20;;;;;;;;;;5068079;28;24492;-51
2022/03/03 01:40:00;;;;;;;21.00;16.65;;;;;;;;;;5068396;28;24434;-52
2022/03/03 01:42:25;;;;;;;19.87;16.60;;;;;;;;;;5067048;28;24423;-52
2022/03/03 01:44:50;;;;;;;19.40;17.07;;;;;;;;;;5068411;28;24433;-52
2022/03/03 01:47:17;;;;;;;18.27;15.98;;;;;;;;;;5068642;28;25000;-51
2022/03/03 01:49:42;;;;;;;19.02;15.85;;;;;;;;;;5067844;28;24441;-51
2022/03/03 01:52:07;;;;;;;17.55;15.65;;;;;;;;;;5068696;28;24842;-52
2022/03/03 01:54:32;;;;;;;17.77;15.20;;;;;;;;;;5068440;28;24407;-52
2022/03/03 01:56:58;;;;;;;17.10;15.26;;;;;;;;;;5068416;28;24417;-51
2022/03/03 01:59:23;;;;;;;19.02;15.85;;;;;;;;;;5068179;28;25081;-52
2022/03/03 02:01:49;;;;;;;18.08;15.90;;;;;;;;;;5066267;28;25089;-51
2022/03/03 02:04:14;;;;;;;18.37;16.30;;;;;;;;;;5068412;28;24409;-52
2022/03/03 02:06:40;;;;;;;19.05;15.32;;;;;;;;;;5066217;28;24409;-51
2022/03/03 02:09:05;;;;;;;18.98;16.25;;;;;;;;;;5066330;28;24514;-51
2022/03/03 02:11:31;;;;;;;17.93;15.23;;;;;;;;;;5068240;28;24426;-52
2022/03/03 02:13:56;;;;;;;19.33;15.73;;;;;;;;;;5066205;28;24423;-51
2022/03/03 02:16:22;;;;;;;17.47;15.67;;;;;;;;;;5067721;28;24403;-52
2022/03/03 02:18:48;;;;;;;16.88;15.07;;;;;;;;;;5066843;28;24433;-51
2022/03/03 02:21:13;;;;;;;17.43;14.87;;;;;;;;;;5067482;28;24645;-51
2022/03/03 02:23:39;;;;;;;18.20;15.80;;;;;;;;;;5067140;28;24578;-52
2022/03/03 02:26:05;;;;;;;19.33;15.47;;;;;;;;;;5067081;28;25024;-52
2022/03/03 02:28:30;;;;;;;20.10;16.05;;;;;;;;;;5067292;28;25064;-53
2022/03/03 02:30:55;;;;;;;18.60;15.70;;;;;;;;;;5067573;28;24465;-52
2022/03/03 02:33:21;;;;;;;17.53;15.33;;;;;;;;;;5067428;28;24487;-53
2022/03/03 02:35:46;;;;;;;16.55;14.75;;;;;;;;;;5067280;28;24960;-52
2022/03/03 02:38:11;;;;;;;18.25;15.32;;;;;;;;;;5067985;28;24418;-52
2022/03/03 02:40:36;;;;;;;18.30;14.93;;;;;;;;;;5067363;28;24486;-52
2022/03/03 02:43:01;;;;;;;19.60;16.13;;;;;;;;;;5066648;28;24964;-51
2022/03/03 02:45:26;;;;;;;16.40;14.75;;;;;;;;;;5065160;28;24773;-52
2022/03/03 02:47:51;;;;;;;16.60;14.80;;;;;;;;;;5067411;28;24609;-52
2022/03/03 02:50:19;;;;;;;18.88;16.20;;;;;;;;;;5065264;28;24496;-52
2022/03/03 02:52:44;;;;;;;18.67;15.63;;;;;;;;;;5066185;28;24417;-51
2022/03/03 02:55:09;;;;;;;19.20;16.40;;;;;;;;;;5065042;28;24960;-52
2022/03/03 02:57:53;;;;;;;19.13;15.50;;;;;;;;;;5065401;28;24449;-52
2022/03/03 03:00:18;;;;;;;16.23;14.50;;;;;;;;;;5067125;28;24435;-52
2022/03/03 03:02:43;;;;;;;17.43;15.23;;;;;;;;;;5066361;28;24780;-52
2022/03/03 03:05:09;;;;;;;17.20;15.30;;;;;;;;;;5066502;28;24422;-51
2022/03/03 03:07:34;;;;;;;16.50;14.77;;;;;;;;;;5065256;28;24421;-52
2022/03/03 03:09:59;;;;;;;18.03;15.37;;;;;;;;;;5063184;28;24423;-56
2022/03/03 03:12:25;;;;;;;17.80;14.57;;;;;;;;;;5066295;28;24414;-51
2022/03/03 03:14:50;;;;;;;19.77;15.70;;;;;;;;;;5062807;28;24426;-52
2022/03/03 03:17:15;;;;;;;18.73;16.10;;;;;;;;;;5066527;28;24497;-52
2022/03/03 03:19:40;;;;;;;18.15;14.50;;;;;;;;;;5062236;28;24603;-52
2022/03/03 03:22:05;;;;;;;16.80;14.97;;;;;;;;;;5063285;28;24819;-52
2022/03/03 03:24:31;;;;;;;16.97;14.70;;;;;;;;;;5056645;28;25023;-52
2022/03/03 03:26:56;;;;;;;17.83;15.50;;;;;;;;;;5066003;28;24417;-51
2022/03/03 03:29:21;;;;;;;16.88;14.48;;;;;;;;;;5065256;28;25179;-51
2022/03/03 03:31:46;;;;;;;18.83;15.32;;;;;;;;;;5065895;28;24444;-51
2022/03/03 03:34:11;;;;;;;19.00;14.97;;;;;;;;;;5062391;28;24488;-51
2022/03/03 03:36:36;;;;;;;18.20;15.65;;;;;;;;;;5065467;28;24454;-51
2022/03/03 03:39:02;;;;;;;17.83;15.40;;;;;;;;;;5065721;28;24523;-52
2022/03/03 03:41:27;;;;;;;17.33;14.90;;;;;;;;;;5065888;28;25003;-52
2022/03/03 03:43:52;;;;;;;19.27;16.00;;;;;;;;;;5063744;28;24457;-52
2022/03/03 03:46:17;;;;;;;17.67;14.80;;;;;;;;;;5065795;28;24418;-52
2022/03/03 03:48:42;;;;;;;17.15;14.75;;;;;;;;;;5069529;28;24880;-51
2022/03/03 03:51:07;;;;;;;16.85;15.05;;;;;;;;;;5066210;28;24499;-51
2022/03/03 03:53:32;;;;;;;18.58;15.50;;;;;;;;;;5062026;28;24426;-51
2022/03/03 03:55:58;;;;;;;17.35;15.20;;;;;;;;;;5065202;28;24450;-51
2022/03/03 03:58:23;;;;;;;18.60;15.60;;;;;;;;;;5063999;28;24427;-51
2022/03/03 04:00:48;;;;;;;16.90;15.10;;;;;;;;;;5064807;28;25032;-50
2022/03/03 04:03:13;;;;;;;18.42;15.23;;;;;;;;;;5064028;28;24418;-51
2022/03/03 04:05:38;;;;;;;18.42;15.98;;;;;;;;;;5065160;28;24422;-50
2022/03/03 04:08:03;;;;;;;19.60;15.90;;;;;;;;;;5063459;28;24807;-51
2022/03/03 04:10:29;;;;;;;17.20;15.37;;;;;;;;;;5064999;28;24417;-51
2022/03/03 04:12:54;;;;;;;16.47;14.77;;;;;;;;;;5064216;28;24446;-51
2022/03/03 04:15:19;;;;;;;17.45;15.23;;;;;;;;;;5065069;28;24453;-51
2022/03/03 04:17:45;;;;;;;18.60;16.60;;;;;;;;;;5063494;28;24513;-52
2022/03/03 04:20:10;;;;;;;18.13;15.60;;;;;;;;;;5065400;28;24427;-51
2022/03/03 04:22:35;;;;;;;19.10;16.30;;;;;;;;;;5061462;28;24419;-51
2022/03/03 04:25:01;;;;;;;18.27;16.38;;;;;;;;;;5065231;28;24978;-51
2022/03/03 04:27:26;;;;;;;19.90;16.40;;;;;;;;;;5063701;28;24422;-50
2022/03/03 04:29:51;;;;;;;19.63;16.10;;;;;;;;;;5065663;28;24430;-50
2022/03/03 04:32:16;;;;;;;19.67;15.90;;;;;;;;;;5063817;28;24710;-50
2022/03/03 04:34:42;;;;;;;18.87;16.10;;;;;;;;;;5062141;28;24518;-50
2022/03/03 04:37:07;;;;;;;18.13;16.10;;;;;;;;;;5064098;28;24522;-50
2022/03/03 04:39:32;;;;;;;19.52;16.35;;;;;;;;;;5063676;28;24422;-51
2022/03/03 04:41:58;;;;;;;19.60;16.02;;;;;;;;;;5062896;28;24453;-50
2022/03/03 04:44:23;;;;;;;19.73;16.60;;;;;;;;;;5064735;28;24506;-50
2022/03/03 04:46:48;;;;;;;18.33;16.33;;;;;;;;;;5065549;28;24484;-50
2022/03/03 04:49:14;;;;;;;20.07;15.87;;;;;;;;;;5065754;28;25163;-50
2022/03/03 04:51:40;;;;;;;20.80;16.00;;;;;;;;;;5067248;28;24914;-50
2022/03/03 04:54:05;;;;;;;18.15;15.95;;;;;;;;;;5067993;28;24414;-50
2022/03/03 04:56:31;;;;;;;18.17;16.17;;;;;;;;;;5068598;28;24437;-50
2022/03/03 04:58:56;;;;;;;18.05;16.00;;;;;;;;;;5068470;28;24419;-50
2022/03/03 05:01:21;;;;;;;19.10;15.63;;;;;;;;;;5067313;28;25011;-50
2022/03/03 05:03:46;;;;;;;18.15;15.25;;;;;;;;;;5068432;28;24402;-50
2022/03/03 05:06:11;;;;;;;19.07;15.50;;;;;;;;;;5060684;28;24443;-52
2022/03/03 05:08:36;;;;;;;19.10;16.03;;;;;;;;;;5067614;28;24769;-50
2022/03/03 05:11:02;;;;;;;18.40;16.40;;;;;;;;;;5052360;28;24419;-50
2022/03/03 05:13:27;;;;;;;18.30;15.50;;;;;;;;;;5067971;28;24510;-50
2022/03/03 05:15:52;;;;;;;19.67;16.03;;;;;;;;;;5067933;28;24419;-50
2022/03/03 05:18:18;;;;;;;18.50;16.13;;;;;;;;;;5068054;28;25046;-51
2022/03/03 05:20:43;;;;;;;18.87;16.87;;;;;;;;;;5068318;28;24438;-54
2022/03/03 05:23:09;;;;;;;19.65;15.57;;;;;;;;;;5063390;28;24431;-51
2022/03/03 05:25:34;;;;;;;17.90;16.00;;;;;;;;;;5065743;28;24411;-51
2022/03/03 05:28:00;;;;;;;18.65;16.45;;;;;;;;;;5066367;28;24407;-51
2022/03/03 05:30:25;;;;;;;19.30;15.63;;;;;;;;;;5068204;28;24616;-51
2022/03/03 05:32:50;;;;;;;17.93;15.67;;;;;;;;;;5074154;28;24429;-51
2022/03/03 05:35:18;;;;;;;18.93;16.47;;;;;;;;;;5065127;28;24426;-51
2022/03/03 05:37:48;;;;;;;18.30;15.90;;;;;;;;;;5064141;28;24419;-51
2022/03/03 05:40:15;;;;;;;16.83;14.98;;;;;;;;;;5061359;28;24438;-51
2022/03/03 05:42:40;;;;;;;19.03;16.20;;;;;;;;;;5062030;28;24417;-51
2022/03/03 05:45:05;;;;;;;21.20;16.63;;;;;;;;;;5072000;28;24967;-51
2022/03/03 05:47:31;;;;;;;19.63;15.90;;;;;;;;;;5073583;28;24419;-51
2022/03/03 05:49:56;;;;;;;18.55;16.10;;;;;;;;;;5066938;28;24418;-51
2022/03/03 05:52:21;;;;;;;21.50;16.40;;;;;;;;;;5067706;28;24873;-51
2022/03/03 05:54:47;;;;;;;18.33;16.07;;;;;;;;;;5067668;28;24918;-51
2022/03/03 05:57:20;;;;;;;18.83;15.63;;;;;;;;;;5064267;28;24409;-51
2022/03/03 05:59:47;;;;;;;22.30;16.30;;;;;;;;;;5065189;28;24792;-51
2022/03/03 06:02:13;;;;;;;20.60;16.50;;;;;;;;;;5065946;28;24528;-50
2022/03/03 06:04:39;;;;;;;21.23;16.35;;;;;;;;;;5067661;28;24953;-52
2022/03/03 06:07:07;;;;;;;21.10;17.20;;;;;;;;;;5075903;28;24513;-52
2022/03/03 06:09:34;;;;;;;19.27;16.98;;;;;;;;;;5068966;28;24407;-53
2022/03/03 06:12:03;;;;;;;20.45;16.70;;;;;;;;;;5066582;28;24605;-51
2022/03/03 06:14:35;;;;;;;21.70;16.70;;;;;;;;;;5061974;28;24418;-51
2022/03/03 06:17:01;;;;;;;18.77;16.17;;;;;;;;;;5065368;28;24514;-52
2022/03/03 06:19:26;;;;;;;20.85;16.48;;;;;;;;;;5068133;28;24459;-51
2022/03/03 06:21:51;;;;;;;19.33;15.83;;;;;;;;;;5074651;28;24434;-52
2022/03/03 06:24:16;;;;;;;18.95;15.93;;;;;;;;;;5072902;28;24429;-51
2022/03/03 06:26:41;;;;;;;17.33;15.48;;;;;;;;;;5068332;28;24568;-52
2022/03/03 06:29:06;;;;;;;19.07;16.57;;;;;;;;;;5068180;28;24383;-51
2022/03/03 06:31:32;;;;;;;18.40;15.55;;;;;;;;;;5068227;28;24582;-52
2022/03/03 06:33:57;;;;;;;19.40;16.15;;;;;;;;;;5067416;28;24843;-53
2022/03/03 06:36:22;;;;;;;18.08;16.10;;;;;;;;;;5068129;28;24395;-50
2022/03/03 06:38:47;;;;;;;19.05;16.38;;;;;;;;;;5068493;28;24481;-51
2022/03/03 06:41:12;;;;;;;18.20;16.23;;;;;;;;;;5067724;28;25322;-51
2022/03/03 06:43:38;;;;;;;19.73;16.60;;;;;;;;;;5067276;28;24414;-50
2022/03/03 06:46:03;;;;;;;18.27;16.30;;;;;;;;;;5065835;28;24391;-51
2022/03/03 06:48:30;;;;;;;20.00;17.63;;;;;;;;;;5067600;28;21352;-51
2022/03/03 06:50:56;;;;;;;18.58;16.58;;;;;;;;;;5064764;28;24430;-51
2022/03/03 06:53:28;;;;;;;20.23;16.77;;;;;;;;;;5067742;28;24781;-52
2022/03/03 06:55:54;;;;;;;20.85;18.00;;;;;;;;;;5067448;28;24457;-51
2022/03/03 06:58:21;;;;;;;21.33;17.70;;;;;;;;;;5061589;28;24430;-51
2022/03/03 07:00:50;;;;;;;20.50;17.03;;;;;;;;;;5060289;28;24522;-52
2022/03/03 07:03:15;;;;;;;19.50;16.40;;;;;;;;;;5064881;28;24848;-51
2022/03/03 07:05:40;;;;;;;19.47;17.37;;;;;;;;;;5064077;28;25040;-51
2022/03/03 07:08:05;;;;;;;21.87;18.10;;;;;;;;;;5065562;28;24402;-52
2022/03/03 07:10:32;;;;;;;19.40;17.08;;;;;;;;;;5064503;28;24546;-51
2022/03/03 07:12:57;;;;;;;21.52;17.83;;;;;;;;;;5065517;28;24567;-52
2022/03/03 07:15:23;;;;;;;19.42;17.30;;;;;;;;;;5067376;28;24812;-52
2022/03/03 07:17:49;;;;;;;20.13;17.60;;;;;;;;;;5053562;28;24701;-51
2022/03/03 07:20:17;;;;;;;19.20;16.73;;;;;;;;;;5063292;28;24435;-51
2022/03/03 07:23:03;;;;;;;21.40;18.58;;;;;;;;;;5064312;28;24453;-51
2022/03/03 07:25:34;;;;;;;20.45;17.77;;;;;;;;;;5071633;28;24608;-51
2022/03/03 07:28:01;;;;;;;19.92;17.83;;;;;;;;;;5064165;28;24748;-51
2022/03/03 07:30:26;;;;;;;19.65;17.50;;;;;;;;;;5064814;28;24411;-51
2022/03/03 07:32:51;;;;;;;21.60;17.60;;;;;;;;;;5067794;28;24429;-51
2022/03/03 07:35:16;;;;;;;20.17;17.25;;;;;;;;;;5082550;28;24468;-51
2022/03/03 07:37:58;;;;;;;18.80;16.73;;;;;;;;;;5085371;28;24791;-52
2022/03/03 07:40:28;;;;;;;20.05;16.67;;;;;;;;;;5076071;28;24487;-52
2022/03/03 07:42:54;;;;;;;19.67;17.58;;;;;;;;;;5064855;28;24773;-50
2022/03/03 07:45:19;;;;;;;19.73;17.63;;;;;;;;;;5066272;28;24402;-51
2022/03/03 07:47:47;;;;;;;17.77;15.88;;;;;;;;;;5066557;28;25009;-51
2022/03/03 07:50:12;;;;;;;20.50;16.83;;;;;;;;;;5065891;28;25054;-51
2022/03/03 07:52:38;;;;;;;19.93;16.30;;;;;;;;;;5064565;28;24804;-51
2022/03/03 07:55:03;;;;;;;17.77;15.23;;;;;;;;;;5064632;28;24417;-50
2022/03/03 07:57:33;;;;;;;19.30;16.13;;;;;;;;;;5066551;28;24462;-51
2022/03/03 08:00:06;;;;;;;18.87;15.73;;;;;;;;;;5066265;28;24425;-51
2022/03/03 08:02:32;;;;;;;18.80;16.30;;;;;;;;;;5057717;28;24469;-51
2022/03/03 08:04:58;;;;;;;18.75;16.20;;;;;;;;;;5045947;28;24453;-50
2022/03/03 08:07:24;;;;;;;18.45;16.08;;;;;;;;;;5052066;28;24537;-51
2022/03/03 08:09:53;;;;;;;19.47;16.40;;;;;;;;;;5061713;28;24578;-50
2022/03/03 08:12:19;;;;;;;19.98;16.67;;;;;;;;;;5063734;28;25127;-51
2022/03/03 08:14:46;;;;;;;18.70;16.23;;;;;;;;;;5064981;28;24426;-50
2022/03/03 08:17:12;;;;;;;16.85;15.05;;;;;;;;;;5066396;28;24398;-51
2022/03/03 08:19:38;;;;;;;19.92;17.40;;;;;;;;;;5066231;28;24506;-51
2022/03/03 08:22:03;;;;;;;19.17;16.67;;;;;;;;;;5065929;28;24510;-51
2022/03/03 08:24:28;;;;;;;18.80;16.90;;;;;;;;;;5066490;28;24511;-52
2022/03/03 08:26:54;;;;;;;18.23;16.33;;;;;;;;;;5064514;28;24402;-52
2022/03/03 08:29:19;;;;;;;18.93;16.33;;;;;;;;;;5064453;28;24410;-51
2022/03/03 08:31:48;;;;;;;19.60;17.05;;;;;;;;;;5061967;28;24411;-52
2022/03/03 08:34:32;;;;;;;17.40;15.20;;;;;;;;;;5065655;28;25041;-52
2022/03/03 08:37:00;;;;;;;20.50;17.15;;;;;;;;;;5066015;28;25271;-51
2022/03/03 08:39:29;;;;;;;17.45;15.60;;;;;;;;;;5063632;28;24399;-51
2022/03/03 08:41:55;;;;;;;19.42;16.17;;;;;;;;;;5065403;28;24447;-52
2022/03/03 08:44:21;;;;;;;21.55;17.73;;;;;;;;;;5065938;28;24375;-52
2022/03/03 08:46:47;;;;;;;19.10;16.70;;;;;;;;;;5064156;28;24947;-53
2022/03/03 08:49:13;;;;;;;19.85;17.17;;;;;;;;;;5065612;28;24644;-50
2022/03/03 08:51:39;;;;;;;21.60;17.30;;;;;;;;;;5065214;28;25224;-50
2022/03/03 08:54:04;;;;;;;20.00;17.13;;;;;;;;;;5065593;28;24403;-52
2022/03/03 08:56:30;;;;;;;22.08;17.73;;;;;;;;;;5064305;28;24476;-50
2022/03/03 08:58:55;;;;;;;18.50;16.03;;;;;;;;;;5066004;28;24431;-51
2022/03/03 09:01:20;;;;;;;21.27;17.53;;;;;;;;;;5065374;28;24495;-51
2022/03/03 09:03:46;;;;;;;20.77;17.80;;;;;;;;;;5065188;28;24483;-52
2022/03/03 09:06:14;;;;;;;20.50;17.03;;;;;;;;;;5063865;28;24429;-51
2022/03/03 09:08:39;;;;;;;22.30;18.83;;;;;;;;;;5065513;28;24613;-51
2022/03/03 09:11:05;;;;;;;20.83;17.95;;;;;;;;;;5063424;28;24514;-51
2022/03/03 09:13:30;;;;;;;20.33;18.23;;;;;;;;;;5065474;28;24476;-51
2022/03/03 09:15:55;;;;;;;22.33;18.47;;;;;;;;;;5064272;28;24432;-51
2022/03/03 09:18:20;;;;;;;21.43;18.40;;;;;;;;;;5065529;28;24417;-51
2022/03/03 09:20:46;;;;;;;23.13;19.17;;;;;;;;;;5065703;28;24417;-51
2022/03/03 09:23:11;;;;;;;22.37;19.10;;;;;;;;;;5063320;28;24514;-51
2022/03/03 09:25:36;;;;;;;22.67;20.10;;;;;;;;;;5065746;28;25026;-51
2022/03/03 09:28:02;;;;;;;25.60;19.67;;;;;;;;;;5064297;28;24391;-52
2022/03/03 09:30:28;;;;;;;25.80;20.38;;;;;;;;;;5065643;28;24406;-52
2022/03/03 09:32:53;;;;;;;25.83;20.63;;;;;;;;;;5064126;28;25080;-52
2022/03/03 09:35:18;;;;;;;23.80;20.23;;;;;;;;;;5066516;28;24950;-51
2022/03/03 09:37:44;;;;;;;25.80;21.87;;;;;;;;;;5067710;28;24390;-52
2022/03/03 09:40:09;;;;;;;29.77;23.52;;;;;;;;;;5069112;28;24430;-51
2022/03/03 09:42:34;;;;;;;25.50;21.60;;;;;;;;;;5068633;28;24426;-51
2022/03/03 09:45:00;;;;;;;27.87;23.47;;;;;;;;;;5067298;28;24457;-51
2022/03/03 09:47:25;;;;;;;24.17;21.67;;;;;;;;;;5069080;28;24406;-52
2022/03/03 09:49:50;;;;;;;25.63;21.80;;;;;;;;;;5067457;28;24394;-52
2022/03/03 09:52:16;;;;;;;27.55;22.63;;;;;;;;;;5068664;28;24732;-51
2022/03/03 09:54:42;;;;;;;26.07;22.20;;;;;;;;;;5068941;28;24438;-52
2022/03/03 09:57:07;;;;;;;29.40;23.70;;;;;;;;;;5065402;28;24805;-51
2022/03/03 09:59:33;;;;;;;28.00;24.40;;;;;;;;;;5068908;28;24390;-52
2022/03/03 10:02:02;;;;;;;27.57;23.27;;;;;;;;;;5068818;28;24559;-53
2022/03/03 10:04:27;;;;;;;27.48;23.23;;;;;;;;;;5066227;28;25280;-53
2022/03/03 10:06:52;;;;;;;27.25;23.33;;;;;;;;;;5067512;28;24479;-52
2022/03/03 10:09:18;;;;;;;30.05;25.17;;;;;;;;;;5086712;28;24729;-52
2022/03/03 10:11:59;;;;;;;29.95;25.65;;;;;;;;;;5080469;28;24445;-52
2022/03/03 10:14:25;;;;;;;30.23;25.40;;;;;;;;;;5068075;28;24407;-53
2022/03/03 10:16:50;;;;;;;29.45;25.10;;;;;;;;;;5066532;28;24430;-52
2022/03/03 10:19:16;;;;;;;30.98;24.98;;;;;;;;;;5066277;28;24399;-51
2022/03/03 10:21:43;;;;;;;29.27;24.00;;;;;;;;;;5068402;28;24411;-52
2022/03/03 10:24:16;;;;;;;28.33;24.75;;;;;;;;;;5068630;28;24788;-51
2022/03/03 10:26:41;;;;;;;31.43;25.43;;;;;;;;;;5067805;28;24999;-51
2022/03/03 10:29:17;;;;;;;26.97;23.83;;;;;;;;;;5066513;28;24394;-51
2022/03/03 10:31:46;;;;;;;30.73;25.00;;;;;;;;;;5067945;28;24784;-52
2022/03/03 10:34:19;;;;;;;27.92;22.77;;;;;;;;;;5066474;28;24435;-51
2022/03/03 10:36:44;;;;;;;27.05;23.80;;;;;;;;;;5066087;28;25473;-51
2022/03/03 10:39:09;;;;;;;28.03;23.03;;;;;;;;;;5068206;28;24976;-52
2022/03/03 10:41:40;;;;;;;26.67;22.83;;;;;;;;;;5067676;28;25042;-52
2022/03/03 10:44:07;;;;;;;27.48;23.50;;;;;;;;;;5068028;28;24489;-52
2022/03/03 10:46:33;;;;;;;29.67;24.00;;;;;;;;;;5064741;28;24437;-52
2022/03/03 10:48:58;;;;;;;26.73;22.85;;;;;;;;;;5066234;28;24395;-52
2022/03/03 10:51:26;;;;;;;27.13;22.87;;;;;;;;;;5067978;28;24857;-52
2022/03/03 10:53:55;;;;;;;29.25;23.90;;;;;;;;;;5066074;28;24395;-51
2022/03/03 10:56:21;;;;;;;26.40;23.50;;;;;;;;;;5065995;28;24485;-52
2022/03/03 10:58:49;;;;;;;30.50;25.47;;;;;;;;;;5065511;28;25076;-52
2022/03/03 11:01:15;;;;;;;27.80;23.83;;;;;;;;;;5067419;28;24411;-52
2022/03/03 11:03:41;;;;;;;27.27;22.95;;;;;;;;;;5067426;28;24725;-52
2022/03/03 11:06:06;;;;;;;28.50;24.05;;;;;;;;;;5066010;28;24397;-52
2022/03/03 11:08:32;;;;;;;22.60;20.07;;;;;;;;;;5065466;28;24932;-52
2022/03/03 11:10:57;;;;;;;24.48;20.42;;;;;;;;;;5067260;28;24434;-51
2022/03/03 11:13:23;;;;;;;25.53;21.07;;;;;;;;;;5065039;28;24456;-52
2022/03/03 11:15:49;;;;;;;26.85;21.50;;;;;;;;;;5067308;28;24486;-51
2022/03/03 11:18:18;;;;;;;23.90;20.95;;;;;;;;;;5067389;28;24391;-51
2022/03/03 11:20:44;;;;;;;22.67;19.60;;;;;;;;;;5067154;28;24423;-52
2022/03/03 11:23:09;;;;;;;23.55;20.45;;;;;;;;;;5065056;28;24409;-52
2022/03/03 11:25:35;;;;;;;22.80;20.33;;;;;;;;;;5065423;28;24403;-52
2022/03/03 11:28:08;;;;;;;25.40;21.60;;;;;;;;;;5065417;28;24481;-52
2022/03/03 11:30:34;;;;;;;24.08;21.48;;;;;;;;;;5065347;28;24401;-53
2022/03/03 11:33:17;;;;;;;23.52;20.92;;;;;;;;;;5066391;28;24450;-52
2022/03/03 11:35:47;;;;;;;23.88;20.75;;;;;;;;;;5066531;28;24419;-52
2022/03/03 11:38:12;;;;;;;24.63;20.20;;;;;;;;;;5067249;28;24383;-53
2022/03/03 11:40:49;;;;;;;25.58;20.65;;;;;;;;;;5064717;28;24930;-52
2022/03/03 11:43:14;;;;;;;26.00;21.45;;;;;;;;;;5066876;28;24391;-52
2022/03/03 11:45:47;;;;;;;28.05;22.05;;;;;;;;;;5066466;28;24418;-52
2022/03/03 11:48:15;;;;;;;26.17;21.90;;;;;;;;;;5066935;28;24843;-52
2022/03/03 11:50:40;;;;;;;23.92;20.33;;;;;;;;;;5067177;28;25086;-52
2022/03/03 11:53:05;;;;;;;24.80;21.33;;;;;;;;;;5064676;28;24917;-52
2022/03/03 11:55:30;;;;;;;24.67;20.65;;;;;;;;;;5066518;28;24986;-53
2022/03/03 11:58:03;;;;;;;25.00;18.77;;;;;;;;;;5066581;28;24411;-52
2022/03/03 12:00:29;;;;;;;19.05;16.42;;;;;;;;;;5064813;28;24506;-52
2022/03/03 12:03:14;;;;;;;19.88;16.70;;;;;;;;;;5066610;28;24444;-52
2022/03/03 12:05:43;;;;;;;20.88;17.70;;;;;;;;;;5066380;28;24383;-52
2022/03/03 12:08:12;;;;;;;19.50;16.08;;;;;;;;;;5066232;28;24480;-52
2022/03/03 12:10:38;;;;;;;20.88;17.13;;;;;;;;;;5064870;28;24456;-52
2022/03/03 12:13:22;;;;;;;22.67;17.45;;;;;;;;;;5064562;28;24486;-52
2022/03/03 12:16:06;;;;;;;23.80;18.30;;;;;;;;;;5064008;28;24463;-52
2022/03/03 12:18:34;;;;;;;22.13;17.80;;;;;;;;;;5065493;28;24446;-52
2022/03/03 12:21:18;;;;;;;21.92;17.45;;;;;;;;;;5066671;28;24451;-52
2022/03/03 12:23:43;;;;;;;20.48;16.75;;;;;;;;;;5063227;28;25051;-52
2022/03/03 12:26:08;;;;;;;22.10;18.00;;;;;;;;;;5066461;28;24562;-52
2022/03/03 12:28:34;;;;;;;21.95;17.90;;;;;;;;;;5065602;28;25017;-51
2022/03/03 12:30:59;;;;;;;22.20;17.25;;;;;;;;;;5066499;28;24492;-52
2022/03/03 12:33:31;;;;;;;23.10;17.67;;;;;;;;;;5064073;28;24406;-52
2022/03/03 12:36:06;;;;;;;19.80;17.30;;;;;;;;;;5066561;28;24406;-51
2022/03/03 12:38:35;;;;;;;21.02;17.58;;;;;;;;;;5065849;28;24418;-52
2022/03/03 12:41:01;;;;;;;21.85;18.15;;;;;;;;;;5064236;28;24436;-52
2022/03/03 12:43:26;;;;;;;21.25;18.38;;;;;;;;;;5064259;28;24793;-52
2022/03/03 12:45:51;;;;;;;20.80;17.42;;;;;;;;;;5066375;28;24406;-53
2022/03/03 12:48:26;;;;;;;23.53;19.73;;;;;;;;;;5065987;28;24440;-52
2022/03/03 12:50:51;;;;;;;22.58;20.17;;;;;;;;;;5045847;28;24973;-53
2022/03/03 12:53:18;;;;;;;22.03;19.33;;;;;;;;;;5046168;28;24408;-52
2022/03/03 12:55:47;;;;;;;25.48;20.75;;;;;;;;;;5044299;28;24384;-52
2022/03/03 12:58:13;;;;;;;25.70;19.90;;;;;;;;;;5046385;28;24636;-51
2022/03/03 13:00:40;;;;;;;22.30;19.43;;;;;;;;;;5061287;28;24451;-50
2022/03/03 13:03:06;;;;;;;23.42;20.40;;;;;;;;;;5064193;28;25019;-51
2022/03/03 13:05:31;;;;;;;23.35;20.83;;;;;;;;;;5064102;28;24482;-51
2022/03/03 13:07:56;;;;;;;23.42;19.98;;;;;;;;;;5054632;28;24404;-51
2022/03/03 13:10:22;;;;;;;21.83;19.43;;;;;;;;;;5057929;28;24852;-51
2022/03/03 13:12:48;;;;;;;22.48;19.70;;;;;;;;;;5067659;28;24540;-50
2022/03/03 13:15:13;;;;;;;24.13;20.13;;;;;;;;;;5068281;28;24399;-51
2022/03/03 13:17:57;;;;;;;23.27;19.53;;;;;;;;;;5069737;28;24399;-51
2022/03/03 13:20:23;;;;;;;23.70;21.05;;;;;;;;;;5069214;28;24434;-53
2022/03/03 13:22:48;;;;;;;23.30;20.60;;;;;;;;;;5069222;28;24399;-51
2022/03/03 13:25:17;;;;;;;27.60;21.77;;;;;;;;;;5069676;28;24938;-51
2022/03/03 13:27:43;;;;;;;22.33;19.93;;;;;;;;;;5067937;28;24760;-51
2022/03/03 13:30:08;;;;;;;25.40;21.20;;;;;;;;;;5069661;28;24991;-51
2022/03/03 13:32:42;;;;;;;25.40;20.50;;;;;;;;;;5067083;28;24837;-53
2022/03/03 13:35:07;;;;;;;24.42;20.60;;;;;;;;;;5069532;28;24494;-54
2022/03/03 13:37:32;;;;;;;24.80;20.90;;;;;;;;;;5069563;28;25059;-51
2022/03/03 13:40:10;;;;;;;23.03;19.97;;;;;;;;;;5068421;28;24501;-50
2022/03/03 13:42:37;;;;;;;24.65;21.50;;;;;;;;;;5068249;28;24443;-51
2022/03/03 13:45:03;;;;;;;26.08;21.90;;;;;;;;;;5067627;28;24982;-51
2022/03/03 13:47:29;;;;;;;24.17;20.23;;;;;;;;;;5069187;28;24409;-51
2022/03/03 13:49:55;;;;;;;24.65;21.90;;;;;;;;;;5067259;28;24487;-52
2022/03/03 13:52:20;;;;;;;24.70;21.10;;;;;;;;;;5066855;28;24955;-51
2022/03/03 13:54:48;;;;;;;25.30;20.57;;;;;;;;;;5067193;28;24967;-50
2022/03/03 13:57:34;;;;;;;24.73;21.20;;;;;;;;;;5069035;28;24393;-51
2022/03/03 14:00:00;;;;;;;22.35;19.08;;;;;;;;;;5068582;28;24970;-51
2022/03/03 14:02:26;;;;;;;25.00;20.05;;;;;;;;;;5066857;28;24410;-52
2022/03/03 14:04:57;;;;;;;25.83;21.73;;;;;;;;;;5068840;28;24449;-51
2022/03/03 14:07:27;;;;;;;24.55;20.70;;;;;;;;;;5063420;28;24485;-51
2022/03/03 14:09:59;;;;;;;23.02;20.38;;;;;;;;;;5078226;28;24425;-52
2022/03/03 14:12:25;;;;;;;24.17;20.48;;;;;;;;;;5068406;28;24955;-52